Time;durP1;ratioP1;P1;durP2;ratioP2;P2;SDS_P1;SDS_P2;PMS_P1;PMS_P2;Temp;Humidity;BMP_temperature;BMP_pressure;BME280_temperature;BME280_humidity;BME280_pressure;Samples;Min_cycle;Max_cycle;Signal;HPM_P1;HPM_P2
2021/01/26 00:00:40;;;;;;;38.25;17.25;;;3.40;99.90;;;;;;4968597;28;20042;-81
2021/01/26 00:03:06;;;;;;;42.88;18.25;;;3.30;99.90;;;;;;4968853;28;20081;-81
2021/01/26 00:05:31;;;;;;;37.33;17.98;;;3.30;99.90;;;;;;4966800;28;20025;-81
2021/01/26 00:07:57;;;;;;;37.83;17.55;;;3.30;99.90;;;;;;4967476;28;20657;-81
2021/01/26 00:10:22;;;;;;;36.95;17.58;;;3.30;99.90;;;;;;4968467;28;20500;-81
2021/01/26 00:12:48;;;;;;;38.83;18.20;;;3.20;99.90;;;;;;4967461;28;20102;-81
2021/01/26 00:15:14;;;;;;;39.95;18.10;;;3.20;99.90;;;;;;4965605;28;20034;-81
2021/01/26 00:17:39;;;;;;;35.88;17.20;;;3.30;99.90;;;;;;4968031;28;20031;-81
2021/01/26 00:20:10;;;;;;;38.42;17.25;;;3.30;99.90;;;;;;4968732;28;20015;-81
2021/01/26 00:22:36;;;;;;;38.75;17.13;;;3.30;99.90;;;;;;4967738;28;20034;-81
2021/01/26 00:25:04;;;;;;;33.42;16.38;;;3.40;99.90;;;;;;4964630;28;20054;-81
2021/01/26 00:27:29;;;;;;;39.28;18.58;;;3.40;99.90;;;;;;4966787;28;20113;-80
2021/01/26 00:29:54;;;;;;;34.30;15.80;;;3.30;99.90;;;;;;4966439;28;20031;-81
2021/01/26 00:32:20;;;;;;;36.28;16.58;;;3.20;99.90;;;;;;4967033;28;20107;-81
2021/01/26 00:34:45;;;;;;;37.22;16.90;;;3.20;99.90;;;;;;4965360;28;20114;-81
2021/01/26 00:37:11;;;;;;;35.20;15.75;;;3.30;99.90;;;;;;4965985;28;20235;-80
2021/01/26 00:39:36;;;;;;;35.72;17.38;;;3.30;99.90;;;;;;4965648;28;20037;-81
2021/01/26 00:42:02;;;;;;;37.63;17.17;;;3.30;99.90;;;;;;4966486;28;20030;-81
2021/01/26 00:44:27;;;;;;;33.67;16.33;;;3.30;99.90;;;;;;4965715;28;20025;-81
2021/01/26 00:46:53;;;;;;;30.50;14.75;;;3.40;99.90;;;;;;4966356;28;20073;-80
2021/01/26 00:49:18;;;;;;;34.75;16.02;;;3.40;99.90;;;;;;4967290;28;20615;-80
2021/01/26 00:51:44;;;;;;;37.72;15.50;;;3.30;99.90;;;;;;4967712;28;20158;-80
2021/01/26 00:54:09;;;;;;;32.15;15.52;;;3.30;99.90;;;;;;4971829;28;20023;-81
2021/01/26 00:56:35;;;;;;;36.83;17.08;;;3.40;99.90;;;;;;4965384;28;20026;-80
2021/01/26 00:59:00;;;;;;;34.72;16.25;;;3.30;99.90;;;;;;4967705;28;20049;-80
2021/01/26 01:01:26;;;;;;;34.50;15.63;;;3.30;99.90;;;;;;4966219;28;20495;-80
2021/01/26 01:03:51;;;;;;;34.13;16.13;;;3.20;99.90;;;;;;4967155;28;20023;-81
2021/01/26 01:06:17;;;;;;;31.90;16.17;;;3.20;99.90;;;;;;4965179;28;20034;-80
2021/01/26 01:08:42;;;;;;;30.25;16.77;;;3.30;99.90;;;;;;4964990;28;20089;-80
2021/01/26 01:11:08;;;;;;;35.42;16.95;;;3.30;99.90;;;;;;4967123;28;20031;-81
2021/01/26 01:13:33;;;;;;;34.53;16.27;;;3.30;99.90;;;;;;4965301;28;20031;-80
2021/01/26 01:15:59;;;;;;;33.40;16.25;;;3.20;99.90;;;;;;4965586;28;22051;-81
2021/01/26 01:18:24;;;;;;;35.40;17.92;;;3.20;99.90;;;;;;4965512;28;20034;-81
2021/01/26 01:20:50;;;;;;;37.63;17.95;;;3.30;99.90;;;;;;4965582;28;20455;-80
2021/01/26 01:23:15;;;;;;;29.23;16.05;;;3.30;99.90;;;;;;4959824;28;20035;-80
2021/01/26 01:25:41;;;;;;;34.30;16.35;;;3.30;99.90;;;;;;4965052;28;20058;-81
2021/01/26 01:28:06;;;;;;;33.03;16.13;;;3.30;99.90;;;;;;4972257;28;20398;-81
2021/01/26 01:30:33;;;;;;;39.10;17.50;;;3.20;99.90;;;;;;4964565;28;20114;-81
2021/01/26 01:33:00;;;;;;;34.88;16.65;;;3.20;99.90;;;;;;4965946;28;20405;-81
2021/01/26 01:35:26;;;;;;;34.58;17.55;;;3.30;99.90;;;;;;4966854;28;20041;-82
2021/01/26 01:37:52;;;;;;;37.55;17.92;;;3.30;99.90;;;;;;4967841;28;20129;-82
2021/01/26 01:40:23;;;;;;;30.88;16.55;;;3.30;99.90;;;;;;4968896;28;20254;-82
2021/01/26 01:42:49;;;;;;;35.75;17.10;;;3.30;99.90;;;;;;4970578;28;20445;-81
2021/01/26 01:45:17;;;;;;;34.90;17.70;;;3.30;99.90;;;;;;4969547;28;20031;-82
2021/01/26 01:47:52;;;;;;;36.00;17.90;;;3.30;99.90;;;;;;4967133;28;20031;-83
2021/01/26 01:50:26;;;;;;;34.65;17.42;;;3.30;99.90;;;;;;4969043;28;20608;-81
2021/01/26 01:52:58;;;;;;;34.67;16.83;;;3.30;99.90;;;;;;4970004;28;20034;-81
2021/01/26 01:55:27;;;;;;;36.28;17.08;;;3.30;99.90;;;;;;4968930;28;20671;-82
2021/01/26 01:58:06;;;;;;;35.03;17.67;;;3.30;99.90;;;;;;4968735;28;20031;-82
2021/01/26 02:00:34;;;;;;;33.78;17.13;;;3.20;99.90;;;;;;4967779;28;20034;-81
2021/01/26 02:03:27;;;;;;;35.50;17.08;;;3.20;99.90;;;;;;4969305;28;20046;-81
2021/01/26 02:05:58;;;;;;;37.58;18.45;;;3.00;99.90;;;;;;4969041;28;20061;-81
2021/01/26 02:08:43;;;;;;;31.42;16.83;;;3.10;99.90;;;;;;4969599;28;20022;-81
2021/01/26 02:11:09;;;;;;;33.40;16.88;;;3.10;99.90;;;;;;4970675;28;20113;-81
2021/01/26 02:13:34;;;;;;;34.70;17.92;;;3.00;99.90;;;;;;4968415;28;20097;-81
2021/01/26 02:16:02;;;;;;;35.63;18.08;;;3.10;99.90;;;;;;4969682;28;20038;-82
2021/01/26 02:19:05;;;;;;;40.60;19.23;;;3.10;99.90;;;;;;4967478;28;20031;-80
2021/01/26 02:22:14;;;;;;;38.95;18.27;;;3.10;99.90;;;;;;4970313;28;20131;-81
2021/01/26 02:25:12;;;;;;;33.85;16.17;;;3.10;99.90;;;;;;4965267;28;20058;-81
2021/01/26 02:27:59;;;;;;;32.53;17.15;;;3.00;99.90;;;;;;4968561;28;20077;-81
2021/01/26 02:30:28;;;;;;;30.08;16.92;;;3.00;99.90;;;;;;4969123;28;20054;-82
2021/01/26 02:33:39;;;;;;;31.67;16.55;;;3.00;99.90;;;;;;4969050;28;20033;-80
2021/01/26 02:36:49;;;;;;;37.72;16.98;;;2.90;99.90;;;;;;4974054;28;20038;-80
2021/01/26 02:39:32;;;;;;;36.35;16.88;;;2.80;99.90;;;;;;4967103;28;20023;-80
2021/01/26 02:42:42;;;;;;;38.17;17.20;;;2.80;99.90;;;;;;4968123;28;20054;-80
2021/01/26 02:45:23;;;;;;;36.47;17.50;;;2.80;99.90;;;;;;4968680;28;20545;-80
2021/01/26 02:48:07;;;;;;;41.40;17.23;;;2.80;99.90;;;;;;4967699;28;20149;-82
2021/01/26 02:50:47;;;;;;;33.85;16.20;;;2.80;99.90;;;;;;4967128;28;20047;-81
2021/01/26 02:53:26;;;;;;;37.47;16.75;;;2.70;99.90;;;;;;4968555;28;20035;-80
2021/01/26 02:56:15;;;;;;;33.00;15.48;;;2.70;99.90;;;;;;4967573;28;20033;-81
2021/01/26 02:58:56;;;;;;;35.50;16.95;;;2.60;99.90;;;;;;4968094;28;20097;-82
2021/01/26 03:01:27;;;;;;;37.38;16.77;;;2.60;99.90;;;;;;4968538;28;20504;-80
2021/01/26 03:03:57;;;;;;;42.42;18.98;;;2.70;99.90;;;;;;4968830;28;20022;-81
2021/01/26 03:06:27;;;;;;;38.05;18.15;;;2.60;99.90;;;;;;4968428;28;20027;-81
2021/01/26 03:09:09;;;;;;;33.85;16.65;;;2.60;99.90;;;;;;4965819;28;20027;-82
2021/01/26 03:12:02;;;;;;;31.60;16.58;;;2.60;99.90;;;;;;4969042;28;20524;-81
2021/01/26 03:14:43;;;;;;;33.28;16.92;;;2.60;99.90;;;;;;4965608;28;20484;-81
2021/01/26 03:17:17;;;;;;;30.33;16.70;;;2.50;99.90;;;;;;4968976;28;20030;-81
2021/01/26 03:19:50;;;;;;;36.58;17.05;;;2.50;99.90;;;;;;4966837;28;20169;-81
2021/01/26 03:22:18;;;;;;;30.52;16.85;;;2.50;99.90;;;;;;4966124;28;20027;-80
2021/01/26 03:24:45;;;;;;;34.00;16.83;;;2.50;99.90;;;;;;4967081;28;20058;-80
2021/01/26 03:27:17;;;;;;;34.15;15.88;;;2.50;99.90;;;;;;4968821;28;20034;-81
2021/01/26 03:29:46;;;;;;;33.85;16.92;;;2.60;99.90;;;;;;4966934;28;20026;-81
2021/01/26 03:32:17;;;;;;;33.97;15.48;;;2.60;99.90;;;;;;4967583;28;20047;-80
2021/01/26 03:34:43;;;;;;;33.80;15.48;;;2.40;99.90;;;;;;4968784;28;20023;-81
2021/01/26 03:37:09;;;;;;;32.85;15.55;;;2.50;99.90;;;;;;4968665;28;20452;-80
2021/01/26 03:39:35;;;;;;;35.38;16.58;;;2.40;99.90;;;;;;4965199;28;20058;-80
2021/01/26 03:42:02;;;;;;;33.03;15.98;;;2.40;99.90;;;;;;4967306;28;20528;-80
2021/01/26 03:44:28;;;;;;;26.50;14.63;;;2.40;99.90;;;;;;4966953;28;20444;-80
2021/01/26 03:47:02;;;;;;;35.53;16.90;;;2.30;99.90;;;;;;4968470;28;20031;-80
2021/01/26 03:49:58;;;;;;;35.88;15.40;;;2.30;99.90;;;;;;4966647;28;20114;-81
2021/01/26 03:52:50;;;;;;;34.30;16.17;;;2.30;99.90;;;;;;4968707;28;20038;-80
2021/01/26 03:55:34;;;;;;;32.42;15.93;;;2.20;99.90;;;;;;4965725;28;20030;-80
2021/01/26 03:58:27;;;;;;;30.23;15.50;;;2.20;99.90;;;;;;4972664;28;20042;-81
2021/01/26 04:01:02;;;;;;;35.22;16.75;;;2.20;99.90;;;;;;4964266;28;20042;-80
2021/01/26 04:03:51;;;;;;;33.50;16.20;;;2.10;99.90;;;;;;4966233;28;20109;-80
2021/01/26 04:06:26;;;;;;;31.15;15.27;;;2.10;99.90;;;;;;4967090;28;20065;-81
2021/01/26 04:09:01;;;;;;;32.17;16.10;;;2.00;99.90;;;;;;4967569;28;20038;-81
2021/01/26 04:11:43;;;;;;;36.97;15.70;;;2.00;99.90;;;;;;4967493;28;20035;-80
2021/01/26 04:14:15;;;;;;;33.72;15.70;;;2.00;99.90;;;;;;4967140;28;20023;-80
2021/01/26 04:16:50;;;;;;;31.40;15.38;;;2.00;99.90;;;;;;4965342;28;20039;-80
2021/01/26 04:19:25;;;;;;;34.75;16.45;;;2.00;99.90;;;;;;4968324;28;20461;-80
2021/01/26 04:21:51;;;;;;;32.72;16.15;;;1.90;99.90;;;;;;4966284;28;20023;-80
2021/01/26 04:24:18;;;;;;;30.05;16.15;;;1.80;99.90;;;;;;4966562;28;20049;-81
2021/01/26 04:26:47;;;;;;;34.90;17.27;;;1.80;99.90;;;;;;4966942;28;20050;-80
2021/01/26 04:29:12;;;;;;;33.83;16.27;;;1.90;99.90;;;;;;4967623;28;20034;-81
2021/01/26 04:31:38;;;;;;;37.92;17.00;;;1.90;99.90;;;;;;4965563;28;20042;-81
2021/01/26 04:34:04;;;;;;;29.83;14.93;;;1.80;99.90;;;;;;4962382;28;20520;-81
2021/01/26 04:36:29;;;;;;;35.08;16.50;;;1.80;99.90;;;;;;4965597;28;20026;-81
2021/01/26 04:38:55;;;;;;;34.72;16.55;;;1.70;99.90;;;;;;4967037;28;20466;-81
2021/01/26 04:41:59;;;;;;;33.95;15.38;;;1.80;99.90;;;;;;4967094;28;20093;-80
2021/01/26 04:44:55;;;;;;;30.30;15.50;;;1.80;99.90;;;;;;4966952;28;20029;-80
2021/01/26 04:47:45;;;;;;;29.45;15.98;;;1.70;99.90;;;;;;4966168;28;20138;-81
2021/01/26 04:50:29;;;;;;;33.47;16.00;;;1.60;99.90;;;;;;4965676;28;20023;-80
2021/01/26 04:53:32;;;;;;;34.63;16.30;;;1.50;99.90;;;;;;4965173;28;20026;-80
2021/01/26 04:56:17;;;;;;;36.08;16.33;;;1.60;99.90;;;;;;4966393;28;20507;-80
2021/01/26 04:58:59;;;;;;;32.95;17.23;;;1.60;99.90;;;;;;4969669;28;20023;-80
2021/01/26 05:01:42;;;;;;;33.63;18.13;;;1.70;99.90;;;;;;4964757;28;20030;-80
2021/01/26 05:04:44;;;;;;;35.28;17.95;;;1.70;99.90;;;;;;4966823;28;20112;-80
2021/01/26 05:07:17;;;;;;;29.42;16.00;;;1.60;99.90;;;;;;4967390;28;20027;-81
2021/01/26 05:10:01;;;;;;;36.15;17.08;;;1.60;99.90;;;;;;4971944;28;20097;-81
2021/01/26 05:12:33;;;;;;;34.88;16.75;;;1.60;99.90;;;;;;4966271;28;20096;-83
2021/01/26 05:15:01;;;;;;;31.15;15.35;;;1.50;99.90;;;;;;4964002;28;20027;-81
2021/01/26 05:17:37;;;;;;;34.13;17.13;;;1.60;99.90;;;;;;4967247;28;20034;-81
2021/01/26 05:20:17;;;;;;;35.30;16.55;;;1.60;99.90;;;;;;4964292;28;20097;-81
2021/01/26 05:22:50;;;;;;;32.38;16.33;;;1.50;99.90;;;;;;4965331;28;20027;-81
2021/01/26 05:25:20;;;;;;;29.85;15.90;;;1.60;99.90;;;;;;4964746;28;20177;-81
2021/01/26 05:27:48;;;;;;;33.88;16.35;;;1.60;99.90;;;;;;4965601;28;21294;-81
2021/01/26 05:30:29;;;;;;;43.15;17.98;;;1.60;99.90;;;;;;4965068;28;20062;-81
2021/01/26 05:33:04;;;;;;;33.00;16.88;;;1.50;99.90;;;;;;4966242;28;20035;-81
2021/01/26 05:35:29;;;;;;;36.05;16.48;;;1.50;99.90;;;;;;4966263;28;20099;-80
2021/01/26 05:37:55;;;;;;;37.80;17.00;;;1.50;99.90;;;;;;4966502;28;20055;-81
2021/01/26 05:40:27;;;;;;;33.92;16.58;;;1.60;99.90;;;;;;4964510;28;20027;-81
2021/01/26 05:42:58;;;;;;;35.15;16.38;;;1.50;99.90;;;;;;4968358;28;20499;-81
2021/01/26 05:45:38;;;;;;;35.33;16.83;;;1.40;99.90;;;;;;4966548;28;20027;-82
2021/01/26 05:48:08;;;;;;;35.40;16.45;;;1.40;99.90;;;;;;4965730;28;20042;-81
2021/01/26 05:50:36;;;;;;;30.38;14.98;;;1.40;99.90;;;;;;4964306;28;20540;-81
2021/01/26 05:53:13;;;;;;;35.42;15.27;;;1.40;99.90;;;;;;4967053;28;20035;-81
2021/01/26 05:55:38;;;;;;;33.78;16.20;;;1.30;99.90;;;;;;4962836;28;20057;-81
2021/01/26 05:58:13;;;;;;;31.35;16.20;;;1.30;99.90;;;;;;4965638;28;20506;-81
2021/01/26 06:00:39;;;;;;;31.98;15.68;;;1.10;99.90;;;;;;4966525;28;20037;-81
2021/01/26 06:03:19;;;;;;;29.85;14.60;;;1.00;99.90;;;;;;4966587;28;20019;-80
2021/01/26 06:06:07;;;;;;;33.55;15.02;;;0.90;99.90;;;;;;4965692;28;20114;-80
2021/01/26 06:08:47;;;;;;;34.20;15.05;;;0.80;99.90;;;;;;4965669;28;20033;-80
2021/01/26 06:11:21;;;;;;;30.63;14.82;;;0.70;99.90;;;;;;4965097;28;20481;-80
2021/01/26 06:13:47;;;;;;;29.08;14.93;;;0.80;99.90;;;;;;4965975;28;20034;-80
2021/01/26 06:16:21;;;;;;;35.30;15.43;;;0.90;99.90;;;;;;4966735;28;20393;-81
2021/01/26 06:19:01;;;;;;;36.03;16.38;;;1.00;99.90;;;;;;4965772;28;20041;-81
2021/01/26 06:21:29;;;;;;;35.55;15.82;;;1.00;99.90;;;;;;4964233;28;20119;-82
2021/01/26 06:23:57;;;;;;;31.30;15.18;;;1.00;99.90;;;;;;4967049;28;20424;-81
2021/01/26 06:26:32;;;;;;;33.95;15.50;;;1.20;99.90;;;;;;4968558;28;20027;-80
2021/01/26 06:29:13;;;;;;;31.77;14.60;;;1.30;99.90;;;;;;4968575;28;20110;-81
2021/01/26 06:31:50;;;;;;;;;;;1.40;99.90;;;;;;4970172;28;20035;-81
2021/01/26 06:34:22;;;;;;;27.92;13.30;;;1.40;99.90;;;;;;4983713;28;20494;-81
2021/01/26 06:36:47;;;;;;;;;;;1.30;99.90;;;;;;4969461;28;20123;-81
2021/01/26 06:39:31;;;;;;;29.02;12.75;;;1.30;99.90;;;;;;4967867;28;19915;-82
2021/01/26 06:42:29;;;;;;;33.45;13.77;;;1.30;99.90;;;;;;4961842;28;20504;-81
2021/01/26 06:45:22;;;;;;;29.42;13.68;;;1.20;99.90;;;;;;4970192;28;20035;-81
2021/01/26 06:48:03;;;;;;;26.05;13.10;;;1.20;99.90;;;;;;4967868;28;20037;-80
2021/01/26 06:50:51;;;;;;;26.27;13.23;;;1.20;99.90;;;;;;4968498;28;20030;-81
2021/01/26 06:53:35;;;;;;;28.48;14.07;;;1.20;99.90;;;;;;4966938;28;20314;-81
2021/01/26 06:56:27;;;;;;;28.42;13.95;;;1.30;99.90;;;;;;4969276;28;20578;-81
2021/01/26 06:58:53;;;;;;;27.23;13.13;;;1.20;99.90;;;;;;4968778;28;20062;-81
2021/01/26 07:01:55;;;;;;;31.95;14.48;;;1.30;99.90;;;;;;4967575;28;20108;-81
2021/01/26 07:05:06;;;;;;;30.23;13.77;;;1.30;99.90;;;;;;4966807;28;20042;-81
2021/01/26 07:08:07;;;;;;;29.33;14.00;;;1.20;99.90;;;;;;4970429;28;20474;-81
2021/01/26 07:11:10;;;;;;;29.48;14.00;;;1.20;99.90;;;;;;4969454;28;20038;-82
2021/01/26 07:13:48;;;;;;;26.45;13.45;;;1.30;99.90;;;;;;4966838;28;20034;-82
2021/01/26 07:16:36;;;;;;;29.38;13.50;;;1.40;99.90;;;;;;4968376;28;20092;-81
2021/01/26 07:19:12;;;;;;;30.38;13.55;;;1.40;99.90;;;;;;4965809;28;20178;-78
2021/01/26 07:22:15;;;;;;;25.00;13.23;;;1.50;99.90;;;;;;4966851;28;20034;-80
2021/01/26 07:25:13;;;;;;;29.20;12.88;;;1.40;99.90;;;;;;4967842;28;20049;-78
2021/01/26 07:27:59;;;;;;;25.90;13.20;;;1.40;99.90;;;;;;4969695;28;20070;-78
2021/01/26 07:30:47;;;;;;;30.75;14.05;;;1.40;99.90;;;;;;4969970;28;20031;-77
2021/01/26 07:33:20;;;;;;;26.80;13.70;;;1.50;99.90;;;;;;4967697;28;20038;-76
2021/01/26 07:36:28;;;;;;;31.38;13.52;;;1.50;99.90;;;;;;4968188;28;20035;-77
2021/01/26 07:39:02;;;;;;;28.88;13.45;;;1.60;99.90;;;;;;4967003;28;20520;-77
2021/01/26 07:41:36;;;;;;;26.15;13.40;;;1.60;99.90;;;;;;4969049;28;20042;-77
2021/01/26 07:44:10;;;;;;;35.75;14.18;;;1.70;99.90;;;;;;4968945;28;20031;-76
2021/01/26 07:46:41;;;;;;;24.73;13.15;;;1.60;99.90;;;;;;4967929;28;20048;-82
2021/01/26 07:49:11;;;;;;;32.42;13.57;;;1.60;99.90;;;;;;4969715;28;20030;-79
2021/01/26 07:51:42;;;;;;;24.42;12.48;;;1.60;99.90;;;;;;4963954;28;20031;-80
2021/01/26 07:54:17;;;;;;;28.75;12.73;;;1.60;99.90;;;;;;4966681;28;20633;-80
2021/01/26 07:56:44;;;;;;;26.70;13.40;;;1.60;99.90;;;;;;4963261;28;20037;-78
2021/01/26 07:59:29;;;;;;;28.80;13.07;;;1.60;99.90;;;;;;4967702;28;20493;-75
2021/01/26 08:01:59;;;;;;;24.70;12.68;;;1.60;99.90;;;;;;4962970;28;20023;-77
2021/01/26 08:04:27;;;;;;;25.13;12.43;;;1.60;99.90;;;;;;4967003;28;20031;-78
2021/01/26 08:06:59;;;;;;;28.77;12.60;;;1.60;99.90;;;;;;4967224;28;20109;-78
2021/01/26 08:09:35;;;;;;;25.15;12.45;;;1.60;99.90;;;;;;4964706;28;20034;-83
2021/01/26 08:12:06;;;;;;;26.13;13.35;;;1.50;99.90;;;;;;4963119;28;20046;-82
2021/01/26 08:14:53;;;;;;;22.20;12.15;;;1.50;99.90;;;;;;4962156;28;20038;-82
2021/01/26 08:17:31;;;;;;;28.00;13.48;;;1.50;99.90;;;;;;4965107;28;20034;-78
2021/01/26 08:20:07;;;;;;;31.33;13.35;;;1.60;99.90;;;;;;4964835;28;20026;-81
2021/01/26 08:22:38;;;;;;;22.05;12.00;;;1.50;99.90;;;;;;4965862;28;20023;-79
2021/01/26 08:25:26;;;;;;;29.30;13.07;;;1.70;99.90;;;;;;4961182;28;20058;-79
2021/01/26 08:28:09;;;;;;;23.38;13.00;;;1.70;99.90;;;;;;4960078;28;20037;-79
2021/01/26 08:30:48;;;;;;;26.33;13.35;;;1.60;99.90;;;;;;4961033;28;20037;-79
2021/01/26 08:33:26;;;;;;;26.30;13.88;;;1.60;99.90;;;;;;4962028;28;20037;-79
2021/01/26 08:36:24;;;;;;;26.77;13.90;;;1.70;99.90;;;;;;4960032;28;20054;-79
2021/01/26 08:38:53;;;;;;;24.98;13.25;;;1.80;99.90;;;;;;4961298;28;20524;-78
2021/01/26 08:41:49;;;;;;;27.38;14.18;;;1.80;99.90;;;;;;4961284;28;20031;-77
2021/01/26 08:44:18;;;;;;;33.38;14.00;;;1.80;99.90;;;;;;4962185;28;20035;-78
2021/01/26 08:46:44;;;;;;;29.50;14.43;;;1.80;99.90;;;;;;4957559;28;20143;-78
2021/01/26 08:49:27;;;;;;;26.40;13.55;;;1.90;99.90;;;;;;4960621;28;20062;-78
2021/01/26 08:51:57;;;;;;;24.88;13.50;;;2.00;99.90;;;;;;4961263;28;20038;-75
2021/01/26 08:54:43;;;;;;;27.90;14.35;;;2.00;99.90;;;;;;4960287;28;21177;-81
2021/01/26 08:57:27;;;;;;;30.58;15.40;;;2.00;99.90;;;;;;4959200;28;20073;-78
2021/01/26 08:59:54;;;;;;;25.95;14.45;;;2.10;99.90;;;;;;4959499;28;20023;-80
2021/01/26 09:02:38;;;;;;;28.42;14.30;;;2.20;99.90;;;;;;4959888;28;20073;-81
2021/01/26 09:05:05;;;;;;;26.73;14.90;;;2.30;99.90;;;;;;4960613;28;20034;-77
2021/01/26 09:07:52;;;;;;;27.90;14.77;;;2.40;99.90;;;;;;4962208;28;20085;-80
2021/01/26 09:10:29;;;;;;;32.53;14.35;;;2.40;99.90;;;;;;4959886;28;20947;-80
2021/01/26 09:13:12;;;;;;;29.88;14.65;;;2.60;99.90;;;;;;4964942;28;20062;-79
2021/01/26 09:16:04;;;;;;;29.23;14.32;;;2.60;99.90;;;;;;4964165;28;20102;-80
2021/01/26 09:18:30;;;;;;;26.98;14.85;;;2.70;99.90;;;;;;4966813;28;20481;-80
2021/01/26 09:21:07;;;;;;;26.95;14.63;;;2.80;99.90;;;;;;4966211;28;20045;-80
2021/01/26 09:23:35;;;;;;;25.67;14.45;;;2.90;99.90;;;;;;4964806;28;20051;-78
2021/01/26 09:26:10;;;;;;;26.02;14.57;;;2.80;99.90;;;;;;4967754;28;20118;-80
2021/01/26 09:28:42;;;;;;;28.75;14.18;;;2.80;99.90;;;;;;4967361;28;20093;-80
2021/01/26 09:31:11;;;;;;;29.88;14.68;;;2.90;99.90;;;;;;4966200;28;20157;-83
2021/01/26 09:33:37;;;;;;;28.38;15.30;;;2.80;99.90;;;;;;4967237;28;20030;-84
2021/01/26 09:36:02;;;;;;;26.17;14.13;;;3.00;99.90;;;;;;4967241;28;20042;-79
2021/01/26 09:38:45;;;;;;;24.50;14.23;;;3.00;99.90;;;;;;4966386;28;20023;-78
2021/01/26 09:41:29;;;;;;;23.55;12.73;;;3.10;99.90;;;;;;4965466;28;20054;-78
2021/01/26 09:44:03;;;;;;;24.27;13.25;;;3.20;99.90;;;;;;4966094;28;20477;-84
2021/01/26 09:46:32;;;;;;;28.33;14.30;;;3.20;99.90;;;;;;4967506;28;20397;-75
2021/01/26 09:49:07;;;;;;;30.27;14.93;;;3.30;99.90;;;;;;4966547;28;20042;-80
2021/01/26 09:51:59;;;;;;;24.92;14.13;;;3.50;99.90;;;;;;4967919;28;20026;-78
2021/01/26 09:54:33;;;;;;;28.80;14.00;;;3.50;99.90;;;;;;4972834;28;20027;-87
2021/01/26 09:57:01;;;;;;;29.33;14.43;;;3.50;99.90;;;;;;4967641;28;20031;-85
2021/01/26 09:59:29;;;;;;;27.42;14.40;;;3.60;99.90;;;;;;4964863;28;20027;-81
2021/01/26 10:01:55;;;;;;;24.80;14.48;;;3.80;99.90;;;;;;4970169;28;20033;-81
2021/01/26 10:04:22;;;;;;;27.13;13.75;;;3.80;99.90;;;;;;4972680;28;20033;-80
2021/01/26 10:06:49;;;;;;;22.00;12.82;;;4.00;99.90;;;;;;4972268;28;20027;-78
2021/01/26 10:09:47;;;;;;;29.27;14.23;;;4.00;99.90;;;;;;4961597;28;20040;-78
2021/01/26 10:12:33;;;;;;;27.40;14.65;;;4.10;99.90;;;;;;4961899;28;20035;-81
2021/01/26 10:15:11;;;;;;;28.45;14.18;;;4.30;99.90;;;;;;4970949;28;20083;-77
2021/01/26 10:17:49;;;;;;;24.73;13.60;;;4.30;99.90;;;;;;4969602;28;20031;-77
2021/01/26 10:20:24;;;;;;;28.42;14.55;;;4.20;99.90;;;;;;4968902;28;20019;-74
2021/01/26 10:23:00;;;;;;;26.50;13.77;;;4.20;99.90;;;;;;4967689;28;20033;-77
2021/01/26 10:25:25;;;;;;;26.88;13.45;;;4.40;99.90;;;;;;4968483;28;20157;-77
2021/01/26 10:27:51;;;;;;;25.30;12.88;;;4.50;99.90;;;;;;4966463;28;20113;-76
2021/01/26 10:30:27;;;;;;;21.77;12.55;;;4.60;99.90;;;;;;4968634;28;20709;-75
2021/01/26 10:32:52;;;;;;;23.02;12.30;;;4.70;99.90;;;;;;4954960;28;20034;-75
2021/01/26 10:35:34;;;;;;;25.80;13.20;;;4.60;99.90;;;;;;4967270;28;20669;-76
2021/01/26 10:38:27;;;;;;;23.30;13.70;;;4.60;99.90;;;;;;4965546;28;20041;-77
2021/01/26 10:41:17;;;;;;;24.48;13.20;;;4.70;99.90;;;;;;4963248;28;20035;-77
2021/01/26 10:43:43;;;;;;;25.75;13.57;;;4.70;99.90;;;;;;4963036;28;20050;-77
2021/01/26 10:46:26;;;;;;;26.15;13.82;;;4.70;99.90;;;;;;4960136;28;20762;-78
2021/01/26 10:48:52;;;;;;;24.70;13.75;;;4.80;99.90;;;;;;4960009;28;20057;-78
2021/01/26 10:51:28;;;;;;;24.08;13.30;;;4.70;99.90;;;;;;4962785;28;20034;-77
2021/01/26 10:53:54;;;;;;;28.25;14.23;;;4.70;99.90;;;;;;4963563;28;20038;-78
2021/01/26 10:56:20;;;;;;;23.98;14.25;;;4.70;99.90;;;;;;4961332;28;20070;-77
2021/01/26 10:58:47;;;;;;;28.17;14.82;;;4.60;99.90;;;;;;4956838;28;21197;-78
2021/01/26 11:01:18;;;;;;;24.65;13.68;;;4.70;99.90;;;;;;4961094;28;20039;-77
2021/01/26 11:03:43;;;;;;;27.27;14.48;;;4.70;99.90;;;;;;4957038;28;20453;-77
2021/01/26 11:06:09;;;;;;;28.48;13.45;;;4.70;99.90;;;;;;4962318;28;20038;-77
2021/01/26 11:08:34;;;;;;;30.27;14.38;;;4.70;99.90;;;;;;4962622;28;20478;-78
2021/01/26 11:11:00;;;;;;;29.02;14.63;;;4.50;99.90;;;;;;4959135;28;20074;-77
2021/01/26 11:13:26;;;;;;;27.30;13.60;;;4.40;99.90;;;;;;4960290;28;20039;-77
2021/01/26 11:15:51;;;;;;;24.02;13.80;;;4.50;99.90;;;;;;4959032;28;20034;-76
2021/01/26 11:18:17;;;;;;;27.17;14.20;;;4.80;99.90;;;;;;4960392;28;20050;-74
2021/01/26 11:20:43;;;;;;;28.55;15.95;;;5.20;99.90;;;;;;4966864;28;20023;-75
2021/01/26 11:23:09;;;;;;;28.08;13.82;;;5.50;99.90;;;;;;4968358;28;21280;-76
2021/01/26 11:26:05;;;;;;;27.05;14.88;;;5.80;99.90;;;;;;4968181;28;20034;-76
2021/01/26 11:28:30;;;;;;;26.88;13.82;;;6.20;99.90;;;;;;4963686;28;20035;-76
2021/01/26 11:30:56;;;;;;;25.23;13.23;;;6.70;99.90;;;;;;4965897;28;20025;-77
2021/01/26 11:33:22;;;;;;;23.65;13.48;;;7.00;97.60;;;;;;4967360;28;20393;-76
2021/01/26 11:35:47;;;;;;;21.83;12.45;;;7.30;97.20;;;;;;4968182;28;20027;-77
2021/01/26 11:38:13;;;;;;;24.35;13.43;;;7.40;95.10;;;;;;4968216;28;20047;-76
2021/01/26 11:40:39;;;;;;;22.15;12.60;;;7.40;94.60;;;;;;4967350;28;20041;-77
2021/01/26 11:43:04;;;;;;;20.48;12.18;;;6.90;93.90;;;;;;4969132;28;20026;-76
2021/01/26 11:45:33;;;;;;;23.33;13.00;;;6.80;94.80;;;;;;4968416;28;20393;-76
2021/01/26 11:48:00;;;;;;;22.40;13.18;;;6.90;94.80;;;;;;4966240;28;20182;-76
2021/01/26 11:50:27;;;;;;;25.50;13.38;;;6.90;95.10;;;;;;4967122;28;20113;-76
2021/01/26 11:52:52;;;;;;;27.35;14.30;;;6.80;95.70;;;;;;4966678;28;20056;-77
2021/01/26 11:55:21;;;;;;;26.13;13.80;;;6.50;96.40;;;;;;4968129;28;20034;-76
2021/01/26 11:57:47;;;;;;;24.83;14.20;;;6.60;97.30;;;;;;4966733;28;20031;-76
2021/01/26 12:00:15;;;;;;;24.90;14.63;;;6.60;97.00;;;;;;4966388;28;20045;-77
2021/01/26 12:02:41;;;;;;;25.50;12.73;;;6.50;96.80;;;;;;4966346;28;20030;-77
2021/01/26 12:05:07;;;;;;;25.65;14.88;;;6.30;96.30;;;;;;4968407;28;20026;-76
2021/01/26 12:07:35;;;;;;;26.08;14.00;;;5.80;97.70;;;;;;4968002;28;20486;-76
2021/01/26 12:10:01;;;;;;;22.48;13.65;;;5.50;98.80;;;;;;4965655;28;20056;-76
2021/01/26 12:12:26;;;;;;;29.23;15.35;;;5.40;99.90;;;;;;4966773;28;20053;-76
2021/01/26 12:14:52;;;;;;;23.40;14.20;;;5.30;99.90;;;;;;4968740;28;20035;-76
2021/01/26 12:17:17;;;;;;;27.95;14.82;;;5.30;99.90;;;;;;4968255;28;20030;-77
2021/01/26 12:19:43;;;;;;;27.60;14.93;;;5.50;99.90;;;;;;4969266;28;20474;-75
2021/01/26 12:22:08;;;;;;;24.70;13.82;;;5.60;99.90;;;;;;4967569;28;20052;-76
2021/01/26 12:24:34;;;;;;;23.58;13.35;;;5.60;99.90;;;;;;4968249;28;20035;-76
2021/01/26 12:27:00;;;;;;;25.98;14.55;;;5.90;99.90;;;;;;4967233;28;20595;-75
2021/01/26 12:29:25;;;;;;;22.50;12.50;;;6.00;99.90;;;;;;4967292;28;20102;-76
2021/01/26 12:31:51;;;;;;;23.98;13.13;;;6.00;99.70;;;;;;4967108;28;20023;-76
2021/01/26 12:34:17;;;;;;;20.63;12.57;;;5.70;99.60;;;;;;4968649;28;20034;-76
2021/01/26 12:36:42;;;;;;;21.52;13.00;;;5.60;99.90;;;;;;4966992;28;20035;-76
2021/01/26 12:39:11;;;;;;;24.02;13.00;;;5.50;99.90;;;;;;4968426;28;20067;-78
2021/01/26 12:41:36;;;;;;;21.50;12.32;;;5.30;99.90;;;;;;4966979;28;20155;-77
2021/01/26 12:44:04;;;;;;;23.67;13.30;;;5.30;99.90;;;;;;4965666;28;20063;-77
2021/01/26 12:46:30;;;;;;;32.13;15.82;;;5.20;99.90;;;;;;4958562;28;20521;-81
2021/01/26 12:48:55;;;;;;;30.52;15.73;;;5.20;99.90;;;;;;4964917;28;20031;-78
2021/01/26 12:51:20;;;;;;;33.03;16.38;;;5.20;99.90;;;;;;4965298;28;20034;-77
2021/01/26 12:53:46;;;;;;;27.63;16.15;;;5.00;99.90;;;;;;4965856;28;20536;-77
2021/01/26 12:56:12;;;;;;;30.10;15.85;;;4.90;99.90;;;;;;4964031;28;20030;-76
2021/01/26 12:58:37;;;;;;;29.58;15.77;;;4.90;99.90;;;;;;4961388;28;20114;-77
2021/01/26 13:01:03;;;;;;;29.52;14.57;;;4.80;99.90;;;;;;4963764;28;20485;-76
2021/01/26 13:03:29;;;;;;;26.38;14.50;;;4.70;99.90;;;;;;4968574;28;20113;-77
2021/01/26 13:05:54;;;;;;;29.13;14.55;;;4.80;99.90;;;;;;4966921;28;20110;-76
2021/01/26 13:08:20;;;;;;;25.73;14.00;;;4.70;99.90;;;;;;4966597;28;20043;-77
2021/01/26 13:10:45;;;;;;;25.95;14.57;;;4.50;99.90;;;;;;4953942;28;20078;-76
2021/01/26 13:13:11;;;;;;;27.10;14.60;;;4.50;99.90;;;;;;4966833;28;20039;-76